createdAt,value
2023-02-07T00:02:25.445Z,101145.94
2023-02-07T00:04:53.156Z,101168.13
2023-02-07T00:07:22.221Z,101196.84
2023-02-07T00:09:50.261Z,101189.94
2023-02-07T00:12:17.956Z,101191.56
2023-02-07T00:14:45.683Z,101172.59
2023-02-07T00:17:13.274Z,101176.03
2023-02-07T00:19:40.893Z,101171.91
2023-02-07T00:22:08.537Z,101181.78
2023-02-07T00:24:37.529Z,101156.78
2023-02-07T00:27:05.234Z,101188.69
2023-02-07T00:29:33.202Z,101188.31
2023-02-07T00:32:00.921Z,101195.41
2023-02-07T00:34:28.615Z,101182.19
2023-02-07T00:36:56.212Z,101193.88
2023-02-07T00:39:23.843Z,101196.22
2023-02-07T00:41:53.792Z,101179.41
2023-02-07T00:44:21.390Z,101189.78
2023-02-07T00:46:49.154Z,101170.63
2023-02-07T00:49:16.806Z,101180.06
2023-02-07T00:51:44.406Z,101171.06
2023-02-07T00:54:12.017Z,101189.59
2023-02-07T00:56:39.575Z,101189.00
2023-02-07T00:59:08.863Z,101200.50
2023-02-07T01:01:36.812Z,101181.28
2023-02-07T01:04:04.547Z,101193.91
2023-02-07T01:06:33.763Z,101193.38
2023-02-07T01:09:02.833Z,101182.59
2023-02-07T01:11:30.830Z,101183.81
2023-02-07T01:13:59.795Z,101184.41
2023-02-07T01:16:30.474Z,101177.31
2023-02-07T01:18:58.918Z,101172.19
2023-02-07T01:21:28.160Z,101180.75
2023-02-07T01:23:56.952Z,101184.25
2023-02-07T01:26:25.173Z,101172.19
2023-02-07T01:28:52.848Z,101168.75
2023-02-07T01:31:22.145Z,101163.63
2023-02-07T01:33:54.489Z,101129.91
2023-02-07T01:36:22.272Z,101179.72
2023-02-07T01:38:50.006Z,101177.31
2023-02-07T01:41:17.582Z,101167.50
2023-02-07T01:44:00.424Z,101178.09
2023-02-07T01:46:29.280Z,101179.47
2023-02-07T01:49:00.354Z,101158.69
2023-02-07T01:51:29.087Z,101181.00
2023-02-07T01:53:59.071Z,101186.94
2023-02-07T01:56:32.040Z,101179.31
2023-02-07T01:59:00.258Z,101166.56
2023-02-07T02:01:27.994Z,101169.16
2023-02-07T02:03:58.357Z,101169.09
2023-02-07T02:06:28.827Z,101159.91
2023-02-07T02:08:58.557Z,101153.59
2023-02-07T02:11:51.939Z,101163.34
2023-02-07T02:14:28.308Z,101180.16
2023-02-07T02:17:01.925Z,101174.91
2023-02-07T02:20:16.035Z,101189.97
2023-02-07T02:22:56.896Z,101184.56
2023-02-07T02:25:50.353Z,101174.72
2023-02-07T02:30:47.515Z,101179.66
2023-02-07T02:35:47.704Z,101157.56
2023-02-07T02:38:18.197Z,101191.75
2023-02-07T02:40:52.047Z,101184.31
2023-02-07T02:43:26.029Z,101159.13
2023-02-07T02:45:57.716Z,101181.47
2023-02-07T02:48:26.180Z,101182.88
2023-02-07T02:50:53.448Z,101176.72
2023-02-07T02:56:12.872Z,101164.00
2023-02-07T02:58:51.068Z,101176.00
2023-02-07T03:01:20.594Z,101172.22
2023-02-07T03:06:23.013Z,101167.72
2023-02-07T03:08:55.712Z,101142.53
2023-02-07T03:11:25.372Z,101123.53
2023-02-07T03:14:01.268Z,101166.78
2023-02-07T03:16:33.731Z,101114.94
2023-02-07T03:19:07.178Z,101167.25
2023-02-07T03:21:34.555Z,101167.34
2023-02-07T03:26:31.498Z,101166.22
2023-02-07T03:34:17.750Z,101160.88
2023-02-07T03:36:50.633Z,101168.53
2023-02-07T03:39:18.537Z,101148.19
2023-02-07T03:41:51.844Z,101158.94
2023-02-07T03:44:20.519Z,101153.16
2023-02-07T03:46:50.584Z,101162.53
2023-02-07T03:49:19.600Z,101170.03
2023-02-07T03:51:48.017Z,101173.28
2023-02-07T03:54:15.637Z,101173.19
2023-02-07T03:56:43.224Z,101168.50
2023-02-07T03:59:10.835Z,101172.41
2023-02-07T04:01:41.900Z,101170.16
2023-02-07T04:04:12.669Z,101144.84
2023-02-07T04:06:41.700Z,101170.94
2023-02-07T04:09:11.624Z,101171.91
2023-02-07T04:11:39.476Z,101163.88
2023-02-07T04:14:07.240Z,101162.22
2023-02-07T04:16:34.923Z,101142.97
2023-02-07T04:19:02.608Z,101156.84
2023-02-07T04:21:30.182Z,101161.00
2023-02-07T04:23:59.092Z,101172.06
2023-02-07T04:26:26.677Z,101171.59
2023-02-07T04:28:54.481Z,101165.91
2023-02-07T04:31:22.295Z,101167.44
2023-02-07T04:33:49.988Z,101165.63
2023-02-07T04:36:17.690Z,101159.84
2023-02-07T04:38:45.445Z,101160.84
2023-02-07T04:41:14.487Z,101158.13
2023-02-07T04:43:42.118Z,101155.56
2023-02-07T04:46:09.992Z,101156.44
2023-02-07T04:48:38.442Z,101166.59
2023-02-07T04:51:06.589Z,101162.25
2023-02-07T04:53:34.442Z,101161.13
2023-02-07T04:56:02.068Z,101165.50
2023-02-07T04:58:31.144Z,101174.41
2023-02-07T05:00:58.794Z,101178.19
2023-02-07T05:03:26.372Z,101183.19
2023-02-07T05:05:54.988Z,101180.22
2023-02-07T05:08:24.579Z,101191.81
2023-02-07T05:10:54.717Z,101185.00
2023-02-07T05:13:22.752Z,101191.09
2023-02-07T05:15:52.207Z,101193.44
2023-02-07T05:18:20.772Z,101206.00
2023-02-07T05:20:49.792Z,101201.84
2023-02-07T05:23:18.943Z,101193.03
2023-02-07T05:25:48.708Z,101195.69
2023-02-07T05:28:16.765Z,101203.94
2023-02-07T05:30:44.672Z,101206.84
2023-02-07T05:33:12.676Z,101212.06
2023-02-07T05:35:41.993Z,101216.13
2023-02-07T05:38:11.081Z,101206.53
2023-02-07T05:40:39.962Z,101207.88
2023-02-07T05:43:07.739Z,101204.84
2023-02-07T05:45:36.126Z,101208.00
2023-02-07T05:48:04.171Z,101215.75
2023-02-07T05:50:33.495Z,101212.28
2023-02-07T05:53:01.273Z,101214.28
2023-02-07T05:55:28.828Z,101211.94
2023-02-07T05:57:57.231Z,101218.28
2023-02-07T06:00:25.162Z,101223.50
2023-02-07T06:02:52.778Z,101216.25
2023-02-07T06:05:21.483Z,101218.53
2023-02-07T06:07:51.510Z,101226.28
2023-02-07T06:10:19.858Z,101215.88
2023-02-07T06:12:47.545Z,101227.59
2023-02-07T06:15:15.293Z,101222.44
2023-02-07T06:17:42.834Z,101238.56
2023-02-07T06:20:11.739Z,101230.69
2023-02-07T06:22:39.365Z,101237.06
2023-02-07T06:25:11.744Z,101230.38
2023-02-07T06:27:40.111Z,101224.44
2023-02-07T06:30:08.801Z,101223.94
2023-02-07T06:32:36.411Z,101222.16
2023-02-07T06:35:04.446Z,101221.88
2023-02-07T06:37:32.017Z,101214.50
2023-02-07T06:39:59.681Z,101225.25
2023-02-07T06:42:28.736Z,101232.06
2023-02-07T06:44:56.318Z,101230.63
2023-02-07T06:47:24.007Z,101234.34
2023-02-07T06:49:51.882Z,101235.66
2023-02-07T06:52:19.722Z,101238.66
2023-02-07T06:54:47.379Z,101228.47
2023-02-07T06:57:15.077Z,101235.16
2023-02-07T06:59:44.016Z,101233.75
2023-02-07T07:02:12.235Z,101235.00
2023-02-07T07:04:40.232Z,101241.88
2023-02-07T07:07:08.220Z,101242.63
2023-02-07T07:09:35.860Z,101250.53
2023-02-07T07:12:04.604Z,101257.25
2023-02-07T07:14:32.571Z,101256.63
2023-02-07T07:17:01.455Z,101261.44
2023-02-07T07:19:29.088Z,101252.22
2023-02-07T07:21:56.701Z,101267.28
2023-02-07T07:24:24.412Z,101269.13
2023-02-07T07:26:52.565Z,101274.97
2023-02-07T07:29:20.752Z,101279.38
2023-02-07T07:31:48.439Z,101270.81
2023-02-07T07:34:17.475Z,101278.94
2023-02-07T07:36:45.097Z,101281.97
2023-02-07T07:39:13.250Z,101274.09
2023-02-07T07:41:40.832Z,101288.22
2023-02-07T07:44:08.515Z,101289.22
2023-02-07T07:46:36.367Z,101285.25
2023-02-07T07:49:03.964Z,101299.81
2023-02-07T07:51:32.988Z,101305.22
2023-02-07T07:54:00.605Z,101301.75
2023-02-07T07:56:29.416Z,101304.78
2023-02-07T07:58:57.263Z,101311.19
2023-02-07T08:01:25.212Z,101309.44
2023-02-07T08:03:52.902Z,101310.03
2023-02-07T08:06:20.810Z,101321.47
2023-02-07T08:08:49.825Z,101335.41
2023-02-07T08:11:17.448Z,101332.75
2023-02-07T08:13:44.991Z,101336.03
2023-02-07T08:18:50.612Z,101339.00
2023-02-07T08:21:18.623Z,101339.91
2023-02-07T08:23:46.312Z,101341.88
2023-02-07T08:26:15.272Z,101337.34
2023-02-07T08:28:42.955Z,101338.34
2023-02-07T08:31:13.113Z,101337.34
2023-02-07T08:33:40.799Z,101340.50
2023-02-07T08:36:11.071Z,101345.97
2023-02-07T08:38:38.699Z,101344.69
2023-02-07T08:41:06.550Z,101347.81
2023-02-07T08:43:35.568Z,101351.94
2023-02-07T08:46:03.472Z,101342.75
2023-02-07T08:48:31.283Z,101338.34
2023-02-07T08:50:59.024Z,101345.72
2023-02-07T08:53:26.596Z,101334.34
2023-02-07T08:55:54.232Z,101342.00
2023-02-07T08:58:21.786Z,101338.81
2023-02-07T09:00:50.769Z,101338.03
2023-02-07T09:03:18.472Z,101347.06
2023-02-07T09:05:46.112Z,101347.78
2023-02-07T09:08:13.677Z,101343.19
2023-02-07T09:10:41.606Z,101354.56
2023-02-07T09:13:09.531Z,101350.25
2023-02-07T09:15:37.233Z,101353.16
2023-02-07T09:18:06.597Z,101355.69
2023-02-07T09:20:34.228Z,101362.66
2023-02-07T09:23:20.208Z,101349.75
2023-02-07T09:25:49.455Z,101355.09
2023-02-07T09:28:17.627Z,101352.44
2023-02-07T09:30:46.545Z,101346.59
2023-02-07T09:33:16.397Z,101347.09
2023-02-07T09:35:46.242Z,101349.53
2023-02-07T09:38:15.236Z,101348.22
2023-02-07T09:40:44.068Z,101349.69
2023-02-07T09:43:18.523Z,101338.91
2023-02-07T09:45:47.529Z,101343.72
2023-02-07T09:48:21.936Z,101343.22
2023-02-07T09:50:52.960Z,101341.91
2023-02-07T09:53:24.670Z,101331.06
2023-02-07T09:55:55.089Z,101333.47
2023-02-07T09:58:31.581Z,101328.00
2023-02-07T10:01:02.443Z,101324.63
2023-02-07T10:03:33.012Z,101329.22
2023-02-07T10:06:12.718Z,101332.31
2023-02-07T10:08:45.087Z,101321.59
2023-02-07T10:11:20.097Z,101302.16
2023-02-07T10:14:07.207Z,101318.44
2023-02-07T10:16:47.810Z,101323.66
2023-02-07T10:19:26.030Z,101324.03
2023-02-07T10:21:59.090Z,101321.50
2023-02-07T10:24:53.867Z,101327.06
2023-02-07T10:27:27.406Z,101322.63
2023-02-07T10:29:57.728Z,101325.50
2023-02-07T10:32:27.285Z,101295.84
2023-02-07T10:34:58.160Z,101304.34
2023-02-07T10:37:27.292Z,101316.16
2023-02-07T10:40:02.195Z,101297.22
2023-02-07T10:42:31.691Z,101324.00
2023-02-07T10:44:59.400Z,101316.59
2023-02-07T10:47:27.002Z,101315.50
2023-02-07T10:49:56.814Z,101310.97
2023-02-07T10:52:29.075Z,101308.56
2023-02-07T10:54:58.294Z,101277.31
2023-02-07T10:57:27.693Z,101289.34
2023-02-07T11:00:04.496Z,101321.06
2023-02-07T11:02:48.854Z,101328.03
2023-02-07T11:05:37.239Z,101306.91
2023-02-07T11:08:12.124Z,101303.72
2023-02-07T11:10:41.228Z,101279.78
2023-02-07T11:13:14.358Z,101302.47
2023-02-07T11:15:49.529Z,101280.16
2023-02-07T11:18:29.506Z,101264.22
2023-02-07T11:20:58.706Z,101257.19
2023-02-07T11:23:26.596Z,101289.44
2023-02-07T11:25:56.060Z,101276.50
2023-02-07T11:28:26.512Z,101264.41
2023-02-07T11:30:58.052Z,101293.56
2023-02-07T11:33:27.628Z,101258.44
2023-02-07T11:36:12.575Z,101282.81
2023-02-07T11:38:41.676Z,101274.38
2023-02-07T11:41:18.461Z,101279.78
2023-02-07T11:43:57.459Z,101299.38
2023-02-07T11:46:32.678Z,101300.56
2023-02-07T11:49:00.804Z,101279.63
2023-02-07T11:51:32.425Z,101308.53
2023-02-07T11:54:02.038Z,101301.94
2023-02-07T11:56:32.743Z,101291.91
2023-02-07T11:59:00.735Z,101278.31
2023-02-07T12:01:30.043Z,101292.31
2023-02-07T12:04:00.963Z,101272.25
2023-02-07T12:06:36.330Z,101284.78
2023-02-07T12:09:06.464Z,101300.16
2023-02-07T12:11:37.704Z,101296.09
2023-02-07T12:14:12.101Z,101288.63
2023-02-07T12:16:43.202Z,101284.00
2023-02-07T12:19:14.030Z,101286.13
2023-02-07T12:21:52.441Z,101290.69
2023-02-07T12:24:23.306Z,101295.63
2023-02-07T12:26:54.803Z,101287.31
2023-02-07T12:29:28.062Z,101286.81
2023-02-07T12:32:02.739Z,101289.72
2023-02-07T12:34:34.613Z,101286.22
2023-02-07T12:37:09.996Z,101247.66
2023-02-07T12:39:42.017Z,101272.34
2023-02-07T12:42:29.446Z,101260.97
2023-02-07T12:44:59.448Z,101258.81
2023-02-07T12:47:35.904Z,101216.53
2023-02-07T12:50:14.808Z,101239.63
2023-02-07T12:52:51.802Z,101227.78
2023-02-07T12:55:28.001Z,101226.28
2023-02-07T12:58:03.525Z,101216.03
2023-02-07T13:00:38.296Z,101217.59
2023-02-07T13:03:16.543Z,101243.56
2023-02-07T13:05:54.288Z,101239.72
2023-02-07T13:08:32.186Z,101236.88
2023-02-07T13:11:07.770Z,101230.34
2023-02-07T13:13:40.660Z,101236.66
2023-02-07T13:16:13.141Z,101235.69
2023-02-07T13:18:44.571Z,101231.09
2023-02-07T13:21:18.956Z,101229.50
2023-02-07T13:23:49.718Z,101226.53
2023-02-07T13:26:20.347Z,101217.53
2023-02-07T13:28:50.561Z,101208.38
2023-02-07T13:31:20.431Z,101216.56
2023-02-07T13:33:49.192Z,101218.28
2023-02-07T13:36:20.834Z,101210.00
2023-02-07T13:39:00.386Z,101217.25
2023-02-07T13:41:33.932Z,101214.19
2023-02-07T13:44:20.344Z,101222.47
2023-02-07T13:46:56.764Z,101223.75
2023-02-07T13:49:31.211Z,101215.81
2023-02-07T13:52:03.234Z,101219.91
2023-02-07T13:54:36.893Z,101228.16
2023-02-07T13:57:22.120Z,101230.59
2023-02-07T14:00:18.863Z,101230.38
2023-02-07T14:02:50.844Z,101235.03
2023-02-07T14:05:22.728Z,101234.03
2023-02-07T14:07:55.897Z,101224.00
2023-02-07T14:10:45.667Z,101223.81
2023-02-07T14:13:30.591Z,101229.22
2023-02-07T14:16:04.993Z,101226.59
2023-02-07T14:18:40.854Z,101225.88
2023-02-07T14:21:24.965Z,101221.06
2023-02-07T14:24:03.180Z,101218.31
2023-02-07T14:26:51.118Z,101218.56
2023-02-07T14:29:55.478Z,101220.44
2023-02-07T14:33:02.659Z,101222.09
2023-02-07T14:35:34.714Z,101220.16
2023-02-07T14:38:13.564Z,101228.25
2023-02-07T14:41:09.690Z,101210.63
2023-02-07T14:43:45.851Z,101219.13
2023-02-07T14:46:16.905Z,101210.59
2023-02-07T14:48:50.927Z,101221.91
2023-02-07T14:51:22.477Z,101223.00
2023-02-07T14:53:58.272Z,101227.91
2023-02-07T14:56:39.249Z,101225.69
2023-02-07T14:59:07.380Z,101225.06
2023-02-07T15:01:34.992Z,101220.66
2023-02-07T15:04:03.746Z,101221.41
2023-02-07T15:06:38.256Z,101216.34
2023-02-07T15:09:06.548Z,101225.06
2023-02-07T15:11:34.142Z,101229.88
2023-02-07T15:14:03.138Z,101228.25
2023-02-07T15:16:32.593Z,101223.06
2023-02-07T15:19:03.692Z,101229.81
2023-02-07T15:21:35.893Z,101229.09
2023-02-07T15:24:06.462Z,101230.00
2023-02-07T15:26:34.869Z,101232.59
2023-02-07T15:29:05.044Z,101227.88
2023-02-07T15:31:39.267Z,101223.75
2023-02-07T15:34:09.178Z,101225.28
2023-02-07T15:36:40.418Z,101227.78
2023-02-07T15:39:13.881Z,101220.97
2023-02-07T15:41:41.608Z,101219.91
2023-02-07T15:44:21.013Z,101214.53
2023-02-07T15:46:50.331Z,101222.28
2023-02-07T15:49:40.647Z,101217.25
2023-02-07T15:52:16.357Z,101218.88
2023-02-07T15:54:46.327Z,101226.59
2023-02-07T15:57:19.842Z,101221.25
2023-02-07T15:59:52.008Z,101229.34
2023-02-07T16:02:29.782Z,101235.06
2023-02-07T16:04:57.492Z,101234.09
2023-02-07T16:07:26.523Z,101229.31
2023-02-07T16:09:54.467Z,101233.53
2023-02-07T16:12:43.857Z,101235.28
2023-02-07T16:15:29.334Z,101233.59
2023-02-07T16:17:57.345Z,101247.97
2023-02-07T16:20:25.803Z,101219.56
2023-02-07T16:22:57.471Z,101208.94
2023-02-07T16:25:28.597Z,101235.28
2023-02-07T16:27:56.651Z,101220.81
2023-02-07T16:30:26.785Z,101221.84
2023-02-07T16:32:54.470Z,101259.31
2023-02-07T16:35:23.485Z,101232.09
2023-02-07T16:37:51.589Z,101242.22
2023-02-07T16:40:22.454Z,101266.78
2023-02-07T16:42:50.909Z,101237.63
2023-02-07T16:45:21.148Z,101258.91
2023-02-07T16:47:49.073Z,101268.19
2023-02-07T16:50:19.593Z,101236.88
2023-02-07T16:52:48.039Z,101229.31
2023-02-07T16:55:16.167Z,101246.59
2023-02-07T16:57:46.269Z,101258.03
2023-02-07T17:00:16.515Z,101259.72
2023-02-07T17:02:44.235Z,101264.81
2023-02-07T17:05:11.822Z,101267.50
2023-02-07T17:07:39.434Z,101259.25
2023-02-07T17:10:19.839Z,101255.69
2023-02-07T17:12:48.875Z,101263.41
2023-02-07T17:15:16.771Z,101257.31
2023-02-07T17:17:44.373Z,101269.31
2023-02-07T17:20:20.375Z,101271.22
2023-02-07T17:22:48.793Z,101260.03
2023-02-07T17:25:16.795Z,101265.88
2023-02-07T17:27:44.490Z,101256.19
2023-02-07T17:30:18.488Z,101250.41
2023-02-07T17:32:46.436Z,101235.63
2023-02-07T17:35:14.461Z,101257.69
2023-02-07T17:37:42.206Z,101263.03
2023-02-07T17:40:22.000Z,101269.84
2023-02-07T17:42:49.819Z,101278.31
2023-02-07T17:45:19.328Z,101272.91
2023-02-07T17:47:47.040Z,101283.97
2023-02-07T17:50:17.845Z,101275.00
2023-02-07T17:52:45.621Z,101280.13
2023-02-07T17:55:13.326Z,101273.13
2023-02-07T17:57:41.526Z,101244.84
2023-02-07T18:00:12.830Z,101267.94
2023-02-07T18:02:42.636Z,101278.13
2023-02-07T18:05:10.660Z,101256.03
2023-02-07T18:07:38.359Z,101270.69
2023-02-07T18:10:09.587Z,101252.25
2023-02-07T18:12:37.323Z,101279.16
2023-02-07T18:15:08.394Z,101249.66
2023-02-07T18:17:36.441Z,101286.69
2023-02-07T18:20:06.613Z,101256.59
2023-02-07T18:22:34.350Z,101267.13
2023-02-07T18:25:01.923Z,101248.94
2023-02-07T18:27:29.564Z,101259.19
2023-02-07T18:29:57.193Z,101289.97
2023-02-07T18:32:24.811Z,101279.66
2023-02-07T18:34:52.661Z,101245.94
2023-02-07T18:37:22.431Z,101239.19
2023-02-07T18:39:50.201Z,101244.19
2023-02-07T18:42:17.928Z,101278.81
2023-02-07T18:44:45.946Z,101244.72
2023-02-07T18:47:13.608Z,101277.09
2023-02-07T18:49:41.264Z,101238.34
2023-02-07T18:52:08.882Z,101252.88
2023-02-07T18:54:38.893Z,101270.00
2023-02-07T18:57:06.791Z,101239.03
2023-02-07T18:59:35.036Z,101273.38
2023-02-07T19:02:03.358Z,101236.44
2023-02-07T19:04:31.158Z,101242.41
2023-02-07T19:06:59.688Z,101227.16
2023-02-07T19:09:28.008Z,101233.94
2023-02-07T19:11:58.321Z,101250.72
2023-02-07T19:14:30.665Z,101272.66
2023-02-07T19:16:58.725Z,101279.06
2023-02-07T19:19:29.019Z,101237.09
2023-02-07T19:21:57.394Z,101276.91
2023-02-07T19:24:25.556Z,101246.28
2023-02-07T19:26:55.012Z,101247.88
2023-02-07T19:29:28.614Z,101265.91
2023-02-07T19:31:56.956Z,101276.63
2023-02-07T19:34:24.898Z,101277.72
2023-02-07T19:36:52.536Z,101285.50
2023-02-07T19:39:20.179Z,101257.03
2023-02-07T19:41:47.806Z,101255.00
2023-02-07T19:44:15.446Z,101272.72
2023-02-07T19:46:45.032Z,101275.06
2023-02-07T19:49:13.289Z,101281.22
2023-02-07T19:51:41.091Z,101269.03
2023-02-07T19:54:08.745Z,101260.00
2023-02-07T19:56:37.486Z,101292.22
2023-02-07T19:59:06.895Z,101287.28
2023-02-07T20:01:37.281Z,101260.34
2023-02-07T20:04:06.792Z,101261.94
2023-02-07T20:06:35.721Z,101272.75
2023-02-07T20:09:05.468Z,101265.06
2023-02-07T20:11:33.337Z,101269.31
2023-02-07T20:14:03.105Z,101293.13
2023-02-07T20:16:33.537Z,101286.56
2023-02-07T20:19:01.602Z,101292.50
2023-02-07T20:21:33.539Z,101298.47
2023-02-07T20:24:01.629Z,101292.28
2023-02-07T20:26:31.740Z,101265.81
2023-02-07T20:29:00.823Z,101286.94
2023-02-07T20:31:29.192Z,101264.09
2023-02-07T20:33:57.627Z,101251.31
2023-02-07T20:36:26.060Z,101278.50
2023-02-07T20:38:57.097Z,101291.47
2023-02-07T20:41:39.336Z,101262.38
2023-02-07T20:44:11.406Z,101271.81
2023-02-07T20:46:40.109Z,101249.88
2023-02-07T20:49:09.282Z,101268.38
2023-02-07T20:51:38.029Z,101271.25
2023-02-07T20:54:07.904Z,101305.56
2023-02-07T20:56:36.306Z,101285.34
2023-02-07T20:59:03.946Z,101285.34
2023-02-07T21:01:32.701Z,101289.00
2023-02-07T21:04:01.617Z,101266.78
2023-02-07T21:06:29.896Z,101286.63
2023-02-07T21:09:00.858Z,101292.78
2023-02-07T21:11:33.679Z,101293.50
2023-02-07T21:14:01.884Z,101275.75
2023-02-07T21:16:30.734Z,101302.09
2023-02-07T21:18:58.727Z,101300.31
2023-02-07T21:21:26.931Z,101260.78
2023-02-07T21:23:54.786Z,101288.09
2023-02-07T21:26:22.471Z,101288.16
2023-02-07T21:28:51.670Z,101256.84
2023-02-07T21:31:21.141Z,101288.22
2023-02-07T21:33:51.127Z,101274.72
2023-02-07T21:36:20.352Z,101284.63
2023-02-07T21:38:49.584Z,101280.16
2023-02-07T21:41:28.642Z,101290.56
2023-02-07T21:43:58.542Z,101283.69
2023-02-07T21:46:28.251Z,101273.56
2023-02-07T21:48:59.003Z,101286.56
2023-02-07T21:51:27.282Z,101272.84
2023-02-07T21:53:56.072Z,101275.22
2023-02-07T21:56:25.944Z,101277.09
2023-02-07T21:58:54.734Z,101284.75
2023-02-07T22:01:24.429Z,101281.66
2023-02-07T22:03:53.850Z,101277.94
2023-02-07T22:06:22.138Z,101276.25
2023-02-07T22:08:54.131Z,101272.88
2023-02-07T22:11:23.274Z,101270.19
2023-02-07T22:13:52.388Z,101266.44
2023-02-07T22:16:21.935Z,101267.22
2023-02-07T22:18:52.529Z,101263.34
2023-02-07T22:21:22.241Z,101252.00
2023-02-07T22:23:50.153Z,101254.25
2023-02-07T22:26:18.723Z,101262.63
2023-02-07T22:28:46.418Z,101272.19
2023-02-07T22:31:15.900Z,101263.44
2023-02-07T22:33:44.248Z,101260.38
2023-02-07T22:36:14.976Z,101255.03
2023-02-07T22:38:42.761Z,101255.44
2023-02-07T22:41:10.421Z,101246.97
2023-02-07T22:43:38.385Z,101254.44
2023-02-07T22:46:07.112Z,101259.84
2023-02-07T22:48:36.288Z,101237.34
2023-02-07T22:51:11.969Z,101256.91
2023-02-07T22:53:41.207Z,101240.69
2023-02-07T22:56:09.645Z,101244.41
2023-02-07T22:58:38.152Z,101241.34
2023-02-07T23:01:06.550Z,101238.41
2023-02-07T23:03:34.855Z,101243.88
2023-02-07T23:06:05.541Z,101237.53
2023-02-07T23:08:33.373Z,101219.72
2023-02-07T23:11:02.590Z,101245.97
2023-02-07T23:13:30.517Z,101239.41
2023-02-07T23:15:58.234Z,101236.28
2023-02-07T23:18:25.958Z,101222.06
2023-02-07T23:20:53.611Z,101237.75
2023-02-07T23:23:22.578Z,101244.22
2023-02-07T23:25:50.228Z,101247.03
2023-02-07T23:28:19.246Z,101247.09
2023-02-07T23:30:47.027Z,101246.16
2023-02-07T23:33:14.651Z,101232.00
2023-02-07T23:35:42.398Z,101270.19
2023-02-07T23:38:10.042Z,101264.25
2023-02-07T23:40:37.777Z,101239.56
2023-02-07T23:43:05.523Z,101259.72
2023-02-07T23:45:34.573Z,101241.03
2023-02-07T23:48:03.846Z,101233.28
2023-02-07T23:50:31.530Z,101228.69
2023-02-07T23:52:59.169Z,101256.16
2023-02-07T23:55:26.832Z,101224.34
2023-02-07T23:57:55.122Z,101227.56
